Mount Patrick, Pennsylvania
Current Conditions -  °F | °C
As of 6:53 AM on Friday 19 Dec 2014 (Local Time) from KSEG Reporting Station
Overcast Overcast  
Wind Chill: 29°   Ceiling: 3300
Heat Index: 35°   Visibility: 10mi
Dew Point: 23°   Wind: 7mph
Humidity: 61%   Direction: NA
Pressure: 30.08"   Gusts: NA
Location:  40.5726°N, 77.0172°W
Report Text: KSEG 191153Z AUTO VRB06KT 10SM OVC033 02/M05 A3008 RMK AO2 SLP188 T00171050 10017 20011 53006
Loading
Personal Weather Stations






























Interactive Weather Map New forecast layout! Learn more

10-Day Weather Forecast

Advertisements
Track Severe Weather on mobile